createdAt,value
2023-02-23T00:01:22.870Z,24.60
2023-02-23T00:03:50.584Z,23.20
2023-02-23T00:06:20.619Z,27.57
2023-02-23T00:08:48.026Z,26.80
2023-02-23T00:11:16.570Z,28.90
2023-02-23T00:13:46.292Z,27.40
2023-02-23T00:16:17.735Z,26.30
2023-02-23T00:18:48.490Z,30.73
2023-02-23T00:21:17.067Z,26.90
2023-02-23T00:23:48.407Z,26.70
2023-02-23T00:26:15.719Z,28.30
2023-02-23T00:28:43.831Z,20.90
2023-02-23T00:31:11.915Z,27.27
2023-02-23T00:33:39.978Z,21.57
2023-02-23T00:36:12.059Z,25.30
2023-02-23T00:38:40.049Z,21.93
2023-02-23T00:41:12.450Z,20.57
2023-02-23T00:43:47.926Z,21.70
2023-02-23T00:46:19.128Z,25.60
2023-02-23T00:48:46.654Z,23.10
2023-02-23T00:51:14.126Z,21.70
2023-02-23T00:53:42.615Z,26.13
2023-02-23T00:56:10.309Z,24.43
2023-02-23T00:58:37.468Z,22.40
2023-02-23T01:01:08.793Z,24.63
2023-02-23T01:03:36.119Z,25.33
2023-02-23T01:06:07.202Z,24.57
2023-02-23T01:08:34.971Z,25.43
2023-02-23T01:11:06.935Z,27.97
2023-02-23T01:13:34.086Z,25.23
2023-02-23T01:16:02.178Z,27.87
2023-02-23T01:18:29.464Z,27.57
2023-02-23T01:20:56.665Z,31.27
2023-02-23T01:23:23.977Z,22.33
2023-02-23T01:25:51.139Z,28.50
2023-02-23T01:28:18.373Z,25.03
2023-02-23T01:30:45.715Z,24.97
2023-02-23T01:33:13.988Z,26.43
2023-02-23T01:35:41.148Z,26.93
2023-02-23T01:38:08.341Z,26.03
2023-02-23T01:40:37.426Z,24.67
2023-02-23T01:43:12.725Z,25.90
2023-02-23T01:45:40.731Z,26.37
2023-02-23T01:48:22.312Z,29.77
2023-02-23T01:50:49.553Z,29.20
2023-02-23T01:53:17.700Z,26.10
2023-02-23T01:55:45.220Z,29.43
2023-02-23T01:58:15.641Z,24.83
2023-02-23T02:00:47.487Z,24.70
2023-02-23T02:03:18.281Z,23.07
2023-02-23T02:05:45.694Z,27.27
2023-02-23T02:08:13.369Z,24.27
2023-02-23T02:10:40.573Z,25.80
2023-02-23T02:13:09.263Z,23.87
2023-02-23T02:15:39.402Z,30.63
2023-02-23T02:18:23.586Z,25.70
2023-02-23T02:20:56.685Z,34.93
2023-02-23T02:23:36.978Z,28.97
2023-02-23T02:26:09.849Z,28.10
2023-02-23T02:28:40.083Z,33.07
2023-02-23T02:31:16.345Z,30.17
2023-02-23T02:33:58.373Z,27.57
2023-02-23T02:36:28.293Z,33.07
2023-02-23T02:39:23.910Z,27.47
2023-02-23T02:42:01.002Z,25.53
2023-02-23T02:44:28.212Z,28.80
2023-02-23T02:46:59.117Z,26.17
2023-02-23T02:49:32.209Z,26.83
2023-02-23T02:52:12.812Z,28.07
2023-02-23T02:54:41.296Z,30.87
2023-02-23T02:57:09.837Z,28.50
2023-02-23T03:00:02.524Z,30.23
2023-02-23T03:02:48.751Z,23.87
2023-02-23T03:05:35.448Z,27.87
2023-02-23T03:08:21.504Z,27.60
2023-02-23T03:11:07.514Z,27.37
2023-02-23T03:14:07.484Z,25.77
2023-02-23T03:16:53.330Z,29.37
2023-02-23T03:19:41.792Z,27.07
2023-02-23T03:22:47.429Z,28.73
2023-02-23T03:25:44.275Z,31.70
2023-02-23T03:28:41.453Z,30.07
2023-02-23T03:31:36.543Z,27.73
2023-02-23T03:34:30.023Z,26.87
2023-02-23T03:37:31.422Z,28.80
2023-02-23T03:40:40.393Z,27.07
2023-02-23T03:43:28.453Z,28.33
2023-02-23T03:46:16.040Z,29.83
2023-02-23T03:49:03.199Z,32.83
2023-02-23T03:51:51.917Z,30.13
2023-02-23T03:54:39.681Z,28.03
2023-02-23T03:57:27.424Z,29.17
2023-02-23T04:00:16.165Z,32.70
2023-02-23T04:03:03.459Z,29.80
2023-02-23T04:05:50.594Z,30.77
2023-02-23T04:08:38.305Z,27.60
2023-02-23T04:11:33.080Z,26.73
2023-02-23T04:14:01.752Z,29.77
2023-02-23T04:16:30.601Z,33.03
2023-02-23T04:18:58.319Z,29.27
2023-02-23T04:21:25.748Z,32.40
2023-02-23T04:23:52.968Z,27.33
2023-02-23T04:26:20.189Z,26.80
2023-02-23T04:28:47.651Z,30.67
2023-02-23T04:31:14.952Z,32.67
2023-02-23T04:33:42.181Z,33.93
2023-02-23T04:36:09.452Z,31.20
2023-02-23T04:38:36.738Z,26.63
2023-02-23T04:41:03.946Z,25.00
2023-02-23T04:43:31.094Z,31.87
2023-02-23T04:45:58.288Z,30.13
2023-02-23T04:48:26.865Z,26.40
2023-02-23T04:50:54.602Z,26.30
2023-02-23T04:53:21.816Z,30.30
2023-02-23T04:55:49.065Z,28.07
2023-02-23T04:58:16.361Z,30.43
2023-02-23T05:00:43.707Z,31.77
2023-02-23T05:03:12.236Z,30.07
2023-02-23T05:05:39.756Z,30.93
2023-02-23T05:08:07.132Z,28.93
2023-02-23T05:10:35.251Z,27.07
2023-02-23T05:13:02.464Z,31.53
2023-02-23T05:15:29.790Z,29.67
2023-02-23T05:17:56.976Z,31.97
2023-02-23T05:20:24.557Z,28.77
2023-02-23T05:22:51.822Z,25.50
2023-02-23T05:25:19.068Z,31.07
2023-02-23T05:27:46.536Z,31.37
2023-02-23T05:30:13.890Z,27.50
2023-02-23T05:32:41.106Z,29.77
2023-02-23T05:35:09.048Z,35.87
2023-02-23T05:37:36.279Z,28.70
2023-02-23T05:40:03.776Z,29.50
2023-02-23T05:42:31.181Z,33.23
2023-02-23T05:44:58.497Z,27.20
2023-02-23T05:47:25.763Z,31.00
2023-02-23T05:49:52.969Z,34.47
2023-02-23T05:52:20.382Z,32.10
2023-02-23T05:54:47.928Z,33.33
2023-02-23T05:57:16.014Z,28.03
2023-02-23T05:59:43.290Z,33.87
2023-02-23T06:02:10.471Z,30.63
2023-02-23T06:04:37.678Z,34.43
2023-02-23T06:07:04.870Z,32.00
2023-02-23T06:09:32.258Z,40.27
2023-02-23T06:12:00.820Z,35.47
2023-02-23T06:14:28.118Z,38.23
2023-02-23T06:16:55.328Z,33.27
2023-02-23T06:19:22.517Z,32.53
2023-02-23T06:21:49.692Z,35.00
2023-02-23T06:24:17.795Z,33.57
2023-02-23T06:26:45.098Z,34.97
2023-02-23T06:29:12.603Z,30.67
2023-02-23T06:31:39.963Z,33.67
2023-02-23T06:34:07.248Z,32.23
2023-02-23T06:36:34.467Z,33.63
2023-02-23T06:39:02.478Z,37.10
2023-02-23T06:41:29.791Z,33.87
2023-02-23T06:43:56.994Z,33.63
2023-02-23T06:46:24.699Z,37.67
2023-02-23T06:48:55.704Z,38.10
2023-02-23T06:51:23.280Z,34.20
2023-02-23T06:53:52.486Z,35.57
2023-02-23T06:56:20.078Z,36.97
2023-02-23T06:58:48.052Z,35.33
2023-02-23T07:01:15.824Z,37.20
2023-02-23T07:03:43.254Z,38.03
2023-02-23T07:06:10.563Z,38.93
2023-02-23T07:08:37.840Z,37.73
2023-02-23T07:11:09.455Z,37.13
2023-02-23T07:13:37.203Z,37.27
2023-02-23T07:16:07.496Z,36.13
2023-02-23T07:18:34.727Z,38.23
2023-02-23T07:21:01.937Z,39.27
2023-02-23T07:23:29.208Z,40.47
2023-02-23T07:25:56.711Z,40.27
2023-02-23T07:28:24.163Z,38.27
2023-02-23T07:30:51.373Z,35.83
2023-02-23T07:33:18.578Z,33.27
2023-02-23T07:35:45.721Z,41.53
2023-02-23T07:38:13.453Z,39.00
2023-02-23T07:40:40.746Z,34.40
2023-02-23T07:43:08.578Z,35.63
2023-02-23T07:45:35.832Z,39.47
2023-02-23T07:48:03.158Z,34.97
2023-02-23T07:50:30.392Z,40.00
2023-02-23T07:52:57.589Z,40.57
2023-02-23T07:55:24.819Z,43.57
2023-02-23T07:57:52.173Z,32.27
2023-02-23T08:00:19.618Z,41.33
2023-02-23T08:02:46.806Z,36.93
2023-02-23T08:05:14.008Z,33.07
2023-02-23T08:07:41.206Z,36.07
2023-02-23T08:10:08.586Z,37.73
2023-02-23T08:12:35.886Z,33.03
2023-02-23T08:15:03.240Z,34.80
2023-02-23T08:17:30.420Z,35.63
2023-02-23T08:19:57.704Z,37.57
2023-02-23T08:22:24.863Z,39.13
2023-02-23T08:24:52.099Z,35.07
2023-02-23T08:27:20.071Z,35.30
2023-02-23T08:29:47.340Z,34.40
2023-02-23T08:32:15.146Z,34.10
2023-02-23T08:34:45.016Z,41.30
2023-02-23T08:37:12.238Z,34.77
2023-02-23T08:39:39.894Z,36.47
2023-02-23T08:42:07.175Z,37.97
2023-02-23T08:44:34.418Z,39.63
2023-02-23T08:47:04.704Z,43.40
2023-02-23T08:49:33.399Z,34.93
2023-02-23T08:52:00.596Z,32.63
2023-02-23T08:54:28.304Z,38.57
2023-02-23T08:56:58.529Z,46.17
2023-02-23T08:59:25.963Z,39.67
2023-02-23T09:01:53.225Z,34.43
2023-02-23T09:04:20.498Z,44.70
2023-02-23T09:06:47.742Z,37.70
2023-02-23T09:09:15.066Z,37.87
2023-02-23T09:11:42.566Z,41.03
2023-02-23T09:14:09.798Z,38.87
2023-02-23T09:16:37.636Z,38.10
2023-02-23T09:19:04.913Z,38.37
2023-02-23T09:21:34.365Z,40.50
2023-02-23T09:24:02.519Z,48.70
2023-02-23T09:26:29.837Z,44.87
2023-02-23T09:28:58.780Z,40.73
2023-02-23T09:31:25.987Z,36.10
2023-02-23T09:33:53.504Z,40.17
2023-02-23T09:36:22.274Z,37.57
2023-02-23T09:38:52.374Z,38.30
2023-02-23T09:41:38.128Z,42.00
2023-02-23T09:44:41.212Z,41.63
2023-02-23T09:47:19.533Z,39.63
2023-02-23T09:49:48.017Z,35.17
2023-02-23T09:52:24.827Z,37.90
2023-02-23T09:54:52.279Z,35.40
2023-02-23T09:57:22.097Z,38.80
2023-02-23T09:59:49.478Z,42.13
2023-02-23T10:02:26.087Z,39.60
2023-02-23T10:05:02.950Z,48.77
2023-02-23T10:07:33.180Z,45.53
2023-02-23T10:10:03.275Z,38.87
2023-02-23T10:12:43.414Z,46.73
2023-02-23T10:15:11.299Z,46.00
2023-02-23T10:17:53.540Z,40.70
2023-02-23T10:20:27.047Z,46.63
2023-02-23T10:22:56.178Z,36.03
2023-02-23T10:25:27.739Z,37.13
2023-02-23T10:27:55.852Z,33.50
2023-02-23T10:30:30.863Z,33.60
2023-02-23T10:33:04.192Z,37.70
2023-02-23T10:35:32.170Z,35.70
2023-02-23T10:38:00.890Z,36.83
2023-02-23T10:40:29.558Z,38.07
2023-02-23T10:42:57.301Z,43.10
2023-02-23T10:45:25.857Z,44.17
2023-02-23T10:47:58.486Z,34.70
2023-02-23T10:50:27.517Z,38.10
2023-02-23T10:52:57.403Z,31.50
2023-02-23T10:55:28.862Z,36.47
2023-02-23T10:58:16.874Z,38.60
2023-02-23T11:01:00.652Z,29.70
2023-02-23T11:03:33.752Z,33.83
2023-02-23T11:06:01.015Z,34.93
2023-02-23T11:08:32.707Z,35.53
2023-02-23T11:11:04.996Z,40.00
2023-02-23T11:13:35.369Z,38.00
2023-02-23T11:16:04.935Z,41.17
2023-02-23T11:18:32.462Z,37.67
2023-02-23T11:20:59.866Z,38.00
2023-02-23T11:23:29.428Z,42.23
2023-02-23T11:26:00.279Z,35.10
2023-02-23T11:28:42.841Z,36.57
2023-02-23T11:31:16.148Z,35.33
2023-02-23T11:33:43.517Z,36.70
2023-02-23T11:36:17.272Z,33.53
2023-02-23T11:38:46.451Z,33.70
2023-02-23T11:41:23.969Z,35.53
2023-02-23T11:43:52.811Z,35.70
2023-02-23T11:46:22.578Z,36.67
2023-02-23T11:48:53.012Z,39.60
2023-02-23T11:51:24.702Z,33.47
2023-02-23T11:53:52.297Z,35.60
2023-02-23T11:56:23.983Z,29.43
2023-02-23T11:58:53.887Z,34.83
2023-02-23T12:01:44.536Z,30.03
2023-02-23T12:04:24.060Z,37.17
2023-02-23T12:06:51.861Z,36.97
2023-02-23T12:09:27.874Z,34.17
2023-02-23T12:12:06.842Z,38.73
2023-02-23T12:14:36.823Z,35.33
2023-02-23T12:17:14.287Z,34.23
2023-02-23T12:19:54.768Z,41.07
2023-02-23T12:22:30.137Z,34.37
2023-02-23T12:25:00.518Z,38.13
2023-02-23T12:27:31.527Z,31.97
2023-02-23T12:30:15.759Z,37.33
2023-02-23T12:32:42.992Z,34.30
2023-02-23T12:35:12.931Z,32.43
2023-02-23T12:37:42.919Z,40.87
2023-02-23T12:40:23.706Z,38.03
2023-02-23T12:43:03.136Z,33.37
2023-02-23T12:45:36.105Z,35.10
2023-02-23T12:48:22.421Z,34.40
2023-02-23T12:50:53.992Z,37.53
2023-02-23T12:53:28.144Z,37.17
2023-02-23T12:56:07.758Z,32.80
2023-02-23T12:58:53.401Z,43.67
2023-02-23T13:01:37.676Z,36.33
2023-02-23T13:04:13.904Z,37.90
2023-02-23T13:06:56.289Z,39.03
2023-02-23T13:09:30.359Z,32.07
2023-02-23T13:12:16.677Z,32.07
2023-02-23T13:14:43.881Z,35.23
2023-02-23T13:17:24.242Z,34.13
2023-02-23T13:19:53.780Z,30.77
2023-02-23T13:22:21.217Z,37.37
2023-02-23T13:24:50.421Z,36.97
2023-02-23T13:27:24.806Z,33.27
2023-02-23T13:29:54.982Z,32.60
2023-02-23T13:32:23.968Z,32.63
2023-02-23T13:35:00.812Z,36.60
2023-02-23T13:37:32.263Z,30.10
2023-02-23T13:40:02.451Z,35.17
2023-02-23T13:42:48.398Z,34.37
2023-02-23T13:45:34.932Z,43.90
2023-02-23T13:48:18.688Z,35.53
2023-02-23T13:50:49.199Z,35.43
2023-02-23T13:53:34.775Z,42.10
2023-02-23T13:56:04.700Z,37.40
2023-02-23T13:58:32.825Z,37.27
2023-02-23T14:01:11.423Z,39.03
2023-02-23T14:03:57.937Z,37.17
2023-02-23T14:06:27.504Z,39.17
2023-02-23T14:09:01.008Z,38.70
2023-02-23T14:11:36.068Z,37.10
2023-02-23T14:14:03.837Z,40.43
2023-02-23T14:16:31.480Z,38.00
2023-02-23T14:19:05.647Z,40.10
2023-02-23T14:21:57.222Z,38.83
2023-02-23T14:24:25.447Z,45.07
2023-02-23T14:27:06.553Z,42.13
2023-02-23T14:29:43.878Z,46.10
2023-02-23T14:32:13.984Z,44.90
2023-02-23T14:34:46.295Z,43.97
2023-02-23T14:37:17.878Z,41.20
2023-02-23T14:39:45.106Z,44.60
2023-02-23T14:42:20.779Z,40.40
2023-02-23T14:44:51.495Z,40.50
2023-02-23T14:47:20.900Z,44.20
2023-02-23T14:49:52.440Z,42.23
2023-02-23T14:52:30.548Z,40.03
2023-02-23T14:55:13.025Z,43.53
2023-02-23T14:57:41.633Z,46.83
2023-02-23T15:00:27.494Z,57.77
2023-02-23T15:02:59.294Z,69.73
2023-02-23T15:05:28.425Z,47.67
2023-02-23T15:07:58.520Z,50.77
2023-02-23T15:10:29.458Z,43.57
2023-02-23T15:12:57.439Z,47.10
2023-02-23T15:15:25.764Z,38.00
2023-02-23T15:17:57.244Z,44.20
2023-02-23T15:20:28.895Z,44.37
2023-02-23T15:22:59.334Z,51.30
2023-02-23T15:25:33.655Z,49.80
2023-02-23T15:28:10.388Z,61.77
2023-02-23T15:30:46.581Z,56.30
2023-02-23T15:33:14.633Z,58.37
2023-02-23T15:35:49.709Z,56.17
2023-02-23T15:38:41.737Z,63.57
2023-02-23T15:41:09.996Z,74.33
2023-02-23T15:43:37.221Z,77.77
2023-02-23T15:46:06.453Z,60.83
2023-02-23T15:48:42.732Z,55.53
2023-02-23T15:51:19.274Z,54.73
2023-02-23T15:53:46.696Z,92.70
2023-02-23T15:56:16.249Z,147.93
2023-02-23T15:58:56.405Z,148.43
2023-02-23T16:01:28.424Z,140.53
2023-02-23T16:03:58.147Z,113.73
2023-02-23T16:06:27.622Z,85.77
2023-02-23T16:09:25.925Z,69.73
2023-02-23T16:12:08.235Z,87.10
2023-02-23T16:14:47.414Z,88.13
2023-02-23T16:17:32.737Z,78.57
2023-02-23T16:20:20.051Z,68.80
2023-02-23T16:22:53.847Z,83.83
2023-02-23T16:25:21.778Z,96.90
2023-02-23T16:27:55.157Z,97.70
2023-02-23T16:30:34.874Z,89.97
2023-02-23T16:33:12.448Z,82.30
2023-02-23T16:35:47.420Z,107.00
2023-02-23T16:38:14.678Z,110.37
2023-02-23T16:40:42.550Z,88.50
2023-02-23T16:43:10.730Z,78.13
2023-02-23T16:45:39.336Z,79.83
2023-02-23T16:48:11.619Z,88.40
2023-02-23T16:50:40.686Z,83.23
2023-02-23T16:53:11.323Z,76.37
2023-02-23T16:55:40.486Z,78.57
2023-02-23T16:58:27.231Z,103.57
2023-02-23T17:01:09.828Z,103.67
2023-02-23T17:03:47.399Z,116.70
2023-02-23T17:06:20.465Z,115.93
2023-02-23T17:08:57.557Z,108.97
2023-02-23T17:11:25.217Z,135.30
2023-02-23T17:13:52.481Z,136.83
2023-02-23T17:16:20.101Z,144.83
2023-02-23T17:18:49.081Z,141.70
2023-02-23T17:21:23.023Z,182.60
2023-02-23T17:23:51.279Z,168.67
2023-02-23T17:26:20.393Z,164.70
2023-02-23T17:28:47.708Z,173.07
2023-02-23T17:31:16.381Z,191.47
2023-02-23T17:33:43.792Z,216.70
2023-02-23T17:36:12.937Z,162.67
2023-02-23T17:38:44.641Z,153.43
2023-02-23T17:41:14.322Z,157.87
2023-02-23T17:43:42.045Z,140.83
2023-02-23T17:46:09.587Z,135.70
2023-02-23T17:48:36.929Z,138.10
2023-02-23T17:51:05.761Z,146.97
2023-02-23T17:53:33.510Z,158.87
2023-02-23T17:56:00.791Z,170.60
2023-02-23T17:58:28.478Z,157.43
2023-02-23T18:00:56.764Z,145.83
2023-02-23T18:03:24.121Z,152.83
2023-02-23T18:05:52.932Z,144.93
2023-02-23T18:08:20.306Z,137.03
2023-02-23T18:10:51.604Z,158.03
2023-02-23T18:13:18.987Z,193.00
2023-02-23T18:15:56.877Z,192.80
2023-02-23T18:18:24.368Z,165.53
2023-02-23T18:20:51.577Z,162.73
2023-02-23T18:23:19.503Z,165.90
2023-02-23T18:25:47.707Z,179.33
2023-02-23T18:28:15.592Z,172.73
2023-02-23T18:30:43.257Z,152.77
2023-02-23T18:33:10.626Z,144.23
2023-02-23T18:35:39.530Z,130.40
2023-02-23T18:38:10.475Z,120.70
2023-02-23T18:40:39.117Z,112.17
2023-02-23T18:43:06.548Z,110.53
2023-02-23T18:45:34.125Z,105.33
2023-02-23T18:48:01.439Z,117.67
2023-02-23T18:50:28.789Z,126.83
2023-02-23T18:52:58.083Z,135.67
2023-02-23T18:55:25.424Z,107.80
2023-02-23T18:57:52.843Z,95.67
2023-02-23T19:00:20.790Z,88.70
2023-02-23T19:02:48.336Z,94.47
2023-02-23T19:05:16.928Z,93.13
2023-02-23T19:07:44.664Z,91.20
2023-02-23T19:10:13.022Z,80.83
2023-02-23T19:12:40.691Z,77.63
2023-02-23T19:15:08.765Z,78.50
2023-02-23T19:17:36.971Z,77.20
2023-02-23T19:20:08.075Z,82.33
2023-02-23T19:22:35.669Z,77.80
2023-02-23T19:25:03.835Z,90.00
2023-02-23T19:27:31.045Z,94.03
2023-02-23T19:29:58.399Z,88.93
2023-02-23T19:32:25.900Z,104.67
2023-02-23T19:34:53.212Z,90.30
2023-02-23T19:37:20.441Z,84.57
2023-02-23T19:39:47.722Z,75.77
2023-02-23T19:42:18.370Z,82.60
2023-02-23T19:44:45.677Z,84.97
2023-02-23T19:47:12.848Z,85.60
2023-02-23T19:49:40.000Z,92.83
2023-02-23T19:52:07.197Z,92.47
2023-02-23T19:54:37.866Z,89.47
2023-02-23T19:57:05.221Z,87.60
2023-02-23T19:59:32.497Z,91.40
2023-02-23T20:01:59.720Z,92.37
2023-02-23T20:04:28.326Z,92.83
2023-02-23T20:06:55.583Z,84.40
2023-02-23T20:09:22.810Z,84.87
2023-02-23T20:11:50.014Z,86.60
2023-02-23T20:14:17.372Z,87.43
2023-02-23T20:16:44.742Z,84.30
2023-02-23T20:19:12.066Z,79.27
2023-02-23T20:21:39.856Z,83.07
2023-02-23T20:24:07.217Z,87.80
2023-02-23T20:26:37.247Z,81.90
2023-02-23T20:29:10.709Z,91.07
2023-02-23T20:31:39.155Z,82.77
2023-02-23T20:34:08.798Z,76.10
2023-02-23T20:36:36.190Z,77.70
2023-02-23T20:39:03.651Z,90.70
2023-02-23T20:41:31.552Z,83.93
2023-02-23T20:44:01.228Z,82.67
2023-02-23T20:46:30.548Z,87.87
2023-02-23T20:48:59.354Z,89.03
2023-02-23T20:51:36.140Z,85.37
2023-02-23T20:54:03.413Z,84.57
2023-02-23T20:56:32.789Z,87.70
2023-02-23T20:59:00.000Z,92.67
2023-02-23T21:01:27.697Z,88.47
2023-02-23T21:03:55.759Z,87.13
2023-02-23T21:06:24.636Z,89.87
2023-02-23T21:08:55.695Z,91.50
2023-02-23T21:11:27.347Z,88.10
2023-02-23T21:13:54.770Z,86.10
2023-02-23T21:16:23.698Z,87.43
2023-02-23T21:19:04.437Z,88.30
2023-02-23T21:21:57.829Z,90.47
2023-02-23T21:24:25.786Z,91.07
2023-02-23T21:26:53.168Z,95.50
2023-02-23T21:29:23.966Z,94.70
2023-02-23T21:31:51.779Z,85.77
2023-02-23T21:34:19.291Z,92.23
2023-02-23T21:36:46.671Z,89.60
2023-02-23T21:39:13.937Z,92.60
2023-02-23T21:41:41.340Z,83.43
2023-02-23T21:44:09.083Z,80.73
2023-02-23T21:46:36.684Z,81.93
2023-02-23T21:49:07.277Z,87.00
2023-02-23T21:51:36.636Z,92.03
2023-02-23T21:54:03.934Z,83.57
2023-02-23T21:56:32.757Z,97.63
2023-02-23T21:59:00.042Z,87.97
2023-02-23T22:01:28.822Z,83.00
2023-02-23T22:03:56.528Z,82.00
2023-02-23T22:06:28.650Z,84.57
2023-02-23T22:08:55.997Z,79.77
2023-02-23T22:11:26.890Z,80.27
2023-02-23T22:13:59.066Z,82.27
2023-02-23T22:16:28.615Z,81.23
2023-02-23T22:18:55.991Z,79.17
2023-02-23T22:21:23.600Z,75.57
2023-02-23T22:23:53.364Z,79.00
2023-02-23T22:26:21.041Z,78.70
2023-02-23T22:28:48.317Z,65.20
2023-02-23T22:31:15.751Z,71.40
2023-02-23T22:33:44.083Z,65.20
2023-02-23T22:36:18.039Z,75.17
2023-02-23T22:38:46.665Z,69.73
2023-02-23T22:41:13.987Z,71.17
2023-02-23T22:43:42.416Z,66.23
2023-02-23T22:46:11.142Z,67.17
2023-02-23T22:48:38.901Z,72.50
2023-02-23T22:51:07.810Z,70.83
2023-02-23T22:53:34.983Z,64.73
2023-02-23T22:56:02.277Z,72.17
2023-02-23T22:58:29.512Z,69.87
2023-02-23T23:01:06.462Z,64.50
2023-02-23T23:03:40.000Z,74.20
2023-02-23T23:06:09.052Z,64.93
2023-02-23T23:08:38.850Z,63.67
2023-02-23T23:11:13.840Z,69.70
2023-02-23T23:13:44.648Z,62.33
2023-02-23T23:16:29.294Z,67.57
2023-02-23T23:19:03.322Z,66.77
2023-02-23T23:21:32.300Z,64.70
2023-02-23T23:24:06.606Z,65.10
2023-02-23T23:26:35.030Z,63.63
2023-02-23T23:29:04.956Z,62.03
2023-02-23T23:31:34.754Z,59.37
2023-02-23T23:34:06.086Z,65.00
2023-02-23T23:36:35.005Z,54.93
2023-02-23T23:39:02.911Z,60.83
2023-02-23T23:41:35.422Z,48.17
2023-02-23T23:44:05.379Z,52.17
2023-02-23T23:46:37.745Z,51.33
2023-02-23T23:49:06.354Z,50.40
2023-02-23T23:51:39.145Z,49.80
2023-02-23T23:54:09.738Z,47.67
2023-02-23T23:56:37.432Z,46.53
2023-02-23T23:59:12.556Z,47.30
